Flowell, Utah
Current Conditions -  °F | °C
As of 9:15 PM on Wednesday 26 Nov 2014 (Local Time) from KDTA Reporting Station
Clear Clear  
Wind Chill: 30°   Ceiling: Unl
Heat Index: 35°   Visibility: 10mi
Dew Point: 28°   Wind: 6mph
Humidity: 73%   Direction: 50°NE
Pressure: 30.39"   Gusts: NA
Location:  38.898°N, 112.594°W
Report Text: KDTA 270415Z AUTO 05005KT 10SM CLR 02/M02 A3039 RMK AO1 T00181025
Loading
Personal Weather Stations






























Interactive Weather Map New forecast layout! Learn more

10-Day Weather Forecast

Advertisements
Track Severe Weather on mobile